Artic, Indiana
Current Conditions -  °F | °C
As of 7:55 PM on Tuesday 21 Oct 2014 (Local Time) from KGWB Reporting Station
Overcast Overcast  
Wind Chill: 44°   Ceiling: 3600
Heat Index: 46°   Visibility: 10mi
Dew Point: 34°   Wind: 5mph
Humidity: 62%   Direction: 360°N
Pressure: 30.19"   Gusts: NA
Location:  41.4294°N, 84.8751°W
Report Text: KGWB 212355Z AUTO 36004KT 10SM OVC036 08/01 A3019 RMK AO2
Loading
Personal Weather Stations






























Interactive Weather Map
Tropical Storm Tracking
New forecast layout! Learn more

10-Day Weather Forecast

Advertisements
Track Severe Weather on mobile